sensor_id;sensor_type;location;lat;lon;timestamp;temperature;humidity
20833;DHT22;56075;51.264;7.150;2023-04-03T09:14:31;4.60;99.90
20833;DHT22;56075;51.264;7.150;2023-04-03T09:25:16;4.70;99.90
20833;DHT22;56075;51.264;7.150;2023-04-03T09:27:47;4.80;99.90
20833;DHT22;56075;51.264;7.150;2023-04-03T09:32:54;4.90;99.90
20833;DHT22;56075;51.264;7.150;2023-04-03T09:43:29;5.20;99.90
20833;DHT22;56075;51.264;7.150;2023-04-03T09:51:42;5.40;99.90
20833;DHT22;56075;51.264;7.150;2023-04-03T10:10:28;5.80;99.90
20833;DHT22;56075;51.264;7.150;2023-04-03T10:15:42;6.00;99.90
20833;DHT22;56075;51.264;7.150;2023-04-03T10:26:23;6.40;99.90
20833;DHT22;56075;51.264;7.150;2023-04-03T10:32:16;6.60;99.90
20833;DHT22;56075;51.264;7.150;2023-04-03T10:45:55;6.60;99.90
20833;DHT22;56075;51.264;7.150;2023-04-03T10:51:16;6.90;99.90
20833;DHT22;56075;51.264;7.150;2023-04-03T10:54:08;7.00;99.90
20833;DHT22;56075;51.264;7.150;2023-04-03T11:04:35;7.10;99.90
20833;DHT22;56075;51.264;7.150;2023-04-03T11:07:15;7.30;99.90
20833;DHT22;56075;51.264;7.150;2023-04-03T11:09:51;7.30;99.90
20833;DHT22;56075;51.264;7.150;2023-04-03T11:12:38;7.40;99.90
20833;DHT22;56075;51.264;7.150;2023-04-03T11:15:15;7.50;99.90
20833;DHT22;56075;51.264;7.150;2023-04-03T11:18:01;7.60;99.90
20833;DHT22;56075;51.264;7.150;2023-04-03T11:20:34;7.40;99.90
20833;DHT22;56075;51.264;7.150;2023-04-03T11:23:26;7.80;99.90
20833;DHT22;56075;51.264;7.150;2023-04-03T11:26:09;7.90;99.90
20833;DHT22;56075;51.264;7.150;2023-04-03T11:28:41;7.80;99.90
20833;DHT22;56075;51.264;7.150;2023-04-03T11:34:13;8.10;99.90
20833;DHT22;56075;51.264;7.150;2023-04-03T11:36:53;8.30;99.90
20833;DHT22;56075;51.264;7.150;2023-04-03T11:39:29;8.60;99.90
20833;DHT22;56075;51.264;7.150;2023-04-03T11:42:24;8.70;99.90
20833;DHT22;56075;51.264;7.150;2023-04-03T11:45:21;8.80;99.90
20833;DHT22;56075;51.264;7.150;2023-04-03T11:50:46;9.70;99.90
20833;DHT22;56075;51.264;7.150;2023-04-03T11:58:24;11.30;99.90
20833;DHT22;56075;51.264;7.150;2023-04-03T12:00:58;11.90;99.90
20833;DHT22;56075;51.264;7.150;2023-04-03T12:03:30;12.10;99.90
20833;DHT22;56075;51.264;7.150;2023-04-03T12:11:29;13.00;99.90
20833;DHT22;56075;51.264;7.150;2023-04-03T12:14:04;13.60;99.90
20833;DHT22;56075;51.264;7.150;2023-04-03T12:19:38;14.20;99.90
20833;DHT22;56075;51.264;7.150;2023-04-03T12:22:16;13.80;99.90
20833;DHT22;56075;51.264;7.150;2023-04-03T12:24:50;14.00;99.90
20833;DHT22;56075;51.264;7.150;2023-04-03T12:27:26;15.00;99.90
20833;DHT22;56075;51.264;7.150;2023-04-03T12:32:48;14.70;99.90
20833;DHT22;56075;51.264;7.150;2023-04-03T12:38:53;14.90;99.90
20833;DHT22;56075;51.264;7.150;2023-04-03T12:47:00;14.20;99.70
20833;DHT22;56075;51.264;7.150;2023-04-03T12:49:39;13.20;99.90
20833;DHT22;56075;51.264;7.150;2023-04-03T12:55:24;12.70;99.50
20833;DHT22;56075;51.264;7.150;2023-04-03T12:57:55;12.30;99.90
20833;DHT22;56075;51.264;7.150;2023-04-03T13:00:48;12.10;99.90
20833;DHT22;56075;51.264;7.150;2023-04-03T13:03:54;11.90;99.90
20833;DHT22;56075;51.264;7.150;2023-04-03T13:06:47;12.60;99.90
20833;DHT22;56075;51.264;7.150;2023-04-03T13:09:27;12.00;99.90
20833;DHT22;56075;51.264;7.150;2023-04-03T13:12:11;11.70;99.90
20833;DHT22;56075;51.264;7.150;2023-04-03T13:14:59;11.80;99.90
20833;DHT22;56075;51.264;7.150;2023-04-03T13:17:39;11.80;99.90
20833;DHT22;56075;51.264;7.150;2023-04-03T13:20:22;11.50;99.90
20833;DHT22;56075;51.264;7.150;2023-04-03T13:23:05;11.70;99.90
20833;DHT22;56075;51.264;7.150;2023-04-03T13:25:42;11.60;99.90
20833;DHT22;56075;51.264;7.150;2023-04-03T13:28:19;12.10;99.90
20833;DHT22;56075;51.264;7.150;2023-04-03T13:31:01;12.00;99.90
20833;DHT22;56075;51.264;7.150;2023-04-03T13:33:35;13.40;99.40
20833;DHT22;56075;51.264;7.150;2023-04-03T13:36:33;14.20;98.90
20833;DHT22;56075;51.264;7.150;2023-04-03T13:39:23;14.80;97.30
20833;DHT22;56075;51.264;7.150;2023-04-03T13:42:01;15.20;97.10
20833;DHT22;56075;51.264;7.150;2023-04-03T13:44:42;15.80;97.20
20833;DHT22;56075;51.264;7.150;2023-04-03T13:47:26;17.80;96.80
20833;DHT22;56075;51.264;7.150;2023-04-03T13:50:20;16.20;95.60
20833;DHT22;56075;51.264;7.150;2023-04-03T13:52:53;16.70;95.40
20833;DHT22;56075;51.264;7.150;2023-04-03T13:55:28;17.10;95.30
20833;DHT22;56075;51.264;7.150;2023-04-03T13:58:27;17.10;94.50
20833;DHT22;56075;51.264;7.150;2023-04-03T14:01:11;16.00;92.30
20833;DHT22;56075;51.264;7.150;2023-04-03T14:06:25;16.30;92.80
20833;DHT22;56075;51.264;7.150;2023-04-03T14:08:56;17.80;93.10
20833;DHT22;56075;51.264;7.150;2023-04-03T14:11:30;17.70;92.70
20833;DHT22;56075;51.264;7.150;2023-04-03T14:14:16;17.80;92.40
20833;DHT22;56075;51.264;7.150;2023-04-03T14:16:54;19.90;92.50
20833;DHT22;56075;51.264;7.150;2023-04-03T14:19:33;18.20;91.90
20833;DHT22;56075;51.264;7.150;2023-04-03T14:22:22;18.20;91.40
20833;DHT22;56075;51.264;7.150;2023-04-03T14:24:58;18.00;90.70
20833;DHT22;56075;51.264;7.150;2023-04-03T14:27:38;17.60;91.20
20833;DHT22;56075;51.264;7.150;2023-04-03T14:30:21;17.70;91.00
20833;DHT22;56075;51.264;7.150;2023-04-03T14:32:52;18.20;90.50
20833;DHT22;56075;51.264;7.150;2023-04-03T14:35:24;17.60;90.60
20833;DHT22;56075;51.264;7.150;2023-04-03T14:37:56;18.10;90.60
20833;DHT22;56075;51.264;7.150;2023-04-03T14:40:27;17.60;90.40
20833;DHT22;56075;51.264;7.150;2023-04-03T14:42:58;19.30;90.70
20833;DHT22;56075;51.264;7.150;2023-04-03T14:45:30;17.80;89.40
20833;DHT22;56075;51.264;7.150;2023-04-03T14:48:03;17.60;89.10
20833;DHT22;56075;51.264;7.150;2023-04-03T14:50:34;18.10;89.20
20833;DHT22;56075;51.264;7.150;2023-04-03T14:53:05;19.50;89.50
20833;DHT22;56075;51.264;7.150;2023-04-03T14:55:36;18.30;88.80
20833;DHT22;56075;51.264;7.150;2023-04-03T14:58:12;18.20;88.50
20833;DHT22;56075;51.264;7.150;2023-04-03T15:00:44;18.20;88.30
20833;DHT22;56075;51.264;7.150;2023-04-03T15:03:18;18.40;88.40
20833;DHT22;56075;51.264;7.150;2023-04-03T15:05:49;18.30;88.10
20833;DHT22;56075;51.264;7.150;2023-04-03T15:08:23;19.50;88.20
20833;DHT22;56075;51.264;7.150;2023-04-03T15:10:56;20.40;88.60
20833;DHT22;56075;51.264;7.150;2023-04-03T15:13:27;18.50;87.10
20833;DHT22;56075;51.264;7.150;2023-04-03T15:15:58;18.60;87.00
20833;DHT22;56075;51.264;7.150;2023-04-03T15:18:35;19.20;87.20
20833;DHT22;56075;51.264;7.150;2023-04-03T15:21:08;18.30;85.80
20833;DHT22;56075;51.264;7.150;2023-04-03T15:23:39;18.10;86.00
20833;DHT22;56075;51.264;7.150;2023-04-03T15:26:10;19.30;86.70
20833;DHT22;56075;51.264;7.150;2023-04-03T15:28:42;17.70;85.40
20833;DHT22;56075;51.264;7.150;2023-04-03T15:31:14;19.50;86.40
20833;DHT22;56075;51.264;7.150;2023-04-03T15:33:45;18.40;85.60
20833;DHT22;56075;51.264;7.150;2023-04-03T15:36:17;18.00;85.50
20833;DHT22;56075;51.264;7.150;2023-04-03T15:38:48;17.80;84.00
20833;DHT22;56075;51.264;7.150;2023-04-03T15:41:19;18.90;85.90
20833;DHT22;56075;51.264;7.150;2023-04-03T15:43:50;17.90;85.40
20833;DHT22;56075;51.264;7.150;2023-04-03T15:46:22;17.70;85.10
20833;DHT22;56075;51.264;7.150;2023-04-03T15:48:53;17.80;85.20
20833;DHT22;56075;51.264;7.150;2023-04-03T15:51:24;17.50;85.50
20833;DHT22;56075;51.264;7.150;2023-04-03T15:53:55;17.00;85.60
20833;DHT22;56075;51.264;7.150;2023-04-03T15:56:26;17.00;86.00
20833;DHT22;56075;51.264;7.150;2023-04-03T15:58:57;16.70;86.10
20833;DHT22;56075;51.264;7.150;2023-04-03T16:01:28;16.90;86.10
20833;DHT22;56075;51.264;7.150;2023-04-03T16:04:00;17.00;86.40
20833;DHT22;56075;51.264;7.150;2023-04-03T16:06:31;16.70;86.20
20833;DHT22;56075;51.264;7.150;2023-04-03T16:09:04;16.80;86.60
20833;DHT22;56075;51.264;7.150;2023-04-03T16:11:36;16.30;86.70
20833;DHT22;56075;51.264;7.150;2023-04-03T16:14:10;16.40;87.10
20833;DHT22;56075;51.264;7.150;2023-04-03T16:16:42;17.00;87.80
20833;DHT22;56075;51.264;7.150;2023-04-03T16:19:13;15.90;87.20
20833;DHT22;56075;51.264;7.150;2023-04-03T16:21:44;17.60;88.10
20833;DHT22;56075;51.264;7.150;2023-04-03T16:24:16;16.60;88.30
20833;DHT22;56075;51.264;7.150;2023-04-03T16:26:47;15.50;87.60
20833;DHT22;56075;51.264;7.150;2023-04-03T16:29:19;15.40;87.70
20833;DHT22;56075;51.264;7.150;2023-04-03T16:31:50;15.30;87.50
20833;DHT22;56075;51.264;7.150;2023-04-03T16:34:22;15.00;88.40
20833;DHT22;56075;51.264;7.150;2023-04-03T16:36:54;16.40;89.80
20833;DHT22;56075;51.264;7.150;2023-04-03T16:39:25;14.40;89.10
20833;DHT22;56075;51.264;7.150;2023-04-03T16:41:56;14.30;89.60
20833;DHT22;56075;51.264;7.150;2023-04-03T16:44:27;15.20;90.20
20833;DHT22;56075;51.264;7.150;2023-04-03T16:46:58;15.10;90.40
20833;DHT22;56075;51.264;7.150;2023-04-03T16:49:29;13.90;90.40
20833;DHT22;56075;51.264;7.150;2023-04-03T16:52:04;13.20;90.60
20833;DHT22;56075;51.264;7.150;2023-04-03T16:54:35;13.90;91.40
20833;DHT22;56075;51.264;7.150;2023-04-03T16:57:07;12.50;91.40
20833;DHT22;56075;51.264;7.150;2023-04-03T16:59:41;12.00;91.80
20833;DHT22;56075;51.264;7.150;2023-04-03T17:02:12;11.50;92.20
20833;DHT22;56075;51.264;7.150;2023-04-03T17:04:43;11.30;92.40
20833;DHT22;56075;51.264;7.150;2023-04-03T17:07:14;11.00;93.90
20833;DHT22;56075;51.264;7.150;2023-04-03T17:09:45;10.70;92.80
20833;DHT22;56075;51.264;7.150;2023-04-03T17:12:16;10.40;93.20
20833;DHT22;56075;51.264;7.150;2023-04-03T17:17:22;10.00;95.00
20833;DHT22;56075;51.264;7.150;2023-04-03T17:19:54;10.10;95.30
20833;DHT22;56075;51.264;7.150;2023-04-03T17:22:27;9.80;95.40
20833;DHT22;56075;51.264;7.150;2023-04-03T17:24:59;9.50;95.60
20833;DHT22;56075;51.264;7.150;2023-04-03T17:27:30;9.40;95.90
20833;DHT22;56075;51.264;7.150;2023-04-03T17:30:01;9.20;96.10
20833;DHT22;56075;51.264;7.150;2023-04-03T17:32:32;9.00;96.30
20833;DHT22;56075;51.264;7.150;2023-04-03T17:35:04;9.00;96.60
20833;DHT22;56075;51.264;7.150;2023-04-03T17:37:35;8.80;96.70
20833;DHT22;56075;51.264;7.150;2023-04-03T17:40:07;8.70;96.90
20833;DHT22;56075;51.264;7.150;2023-04-03T17:42:38;8.60;96.90
20833;DHT22;56075;51.264;7.150;2023-04-03T17:45:09;8.40;97.10
20833;DHT22;56075;51.264;7.150;2023-04-03T17:47:40;8.30;96.80
20833;DHT22;56075;51.264;7.150;2023-04-03T17:50:12;8.10;97.30
20833;DHT22;56075;51.264;7.150;2023-04-03T17:52:46;7.70;97.30
20833;DHT22;56075;51.264;7.150;2023-04-03T17:55:17;8.00;97.70
20833;DHT22;56075;51.264;7.150;2023-04-03T18:00:20;7.90;98.00
20833;DHT22;56075;51.264;7.150;2023-04-03T18:02:52;7.70;97.30
20833;DHT22;56075;51.264;7.150;2023-04-03T18:15:38;7.50;98.90
20833;DHT22;56075;51.264;7.150;2023-04-03T18:18:15;7.40;99.10
20833;DHT22;56075;51.264;7.150;2023-04-03T18:25:49;6.80;99.30
20833;DHT22;56075;51.264;7.150;2023-04-03T18:35:55;6.60;99.70
20833;DHT22;56075;51.264;7.150;2023-04-03T18:43:29;6.30;99.40
20833;DHT22;56075;51.264;7.150;2023-04-03T18:58:39;6.30;99.90
20833;DHT22;56075;51.264;7.150;2023-04-03T19:06:13;6.20;99.90
20833;DHT22;56075;51.264;7.150;2023-04-03T19:08:45;6.20;99.90
20833;DHT22;56075;51.264;7.150;2023-04-03T19:16:19;5.90;99.90
20833;DHT22;56075;51.264;7.150;2023-04-03T19:21:22;5.50;99.90
20833;DHT22;56075;51.264;7.150;2023-04-03T19:23:53;5.60;99.90
20833;DHT22;56075;51.264;7.150;2023-04-03T19:26:30;5.90;99.90
20833;DHT22;56075;51.264;7.150;2023-04-03T19:29:01;5.80;99.90
20833;DHT22;56075;51.264;7.150;2023-04-03T19:34:05;5.60;99.90
20833;DHT22;56075;51.264;7.150;2023-04-03T19:36:37;5.50;99.90
20833;DHT22;56075;51.264;7.150;2023-04-03T20:06:57;5.40;99.90
20833;DHT22;56075;51.264;7.150;2023-04-03T20:19:35;5.20;99.90
20833;DHT22;56075;51.264;7.150;2023-04-03T20:49:59;4.60;99.90
